createdAt,value
2022-11-29T00:00:10.896Z,62.03
2022-11-29T00:02:46.021Z,62.80
2022-11-29T00:04:59.815Z,62.58
2022-11-29T00:07:12.953Z,61.58
2022-11-29T00:09:26.261Z,61.72
2022-11-29T00:11:57.097Z,60.48
2022-11-29T00:14:11.442Z,60.86
2022-11-29T00:16:24.876Z,61.87
2022-11-29T00:18:38.063Z,60.86
2022-11-29T00:20:51.435Z,61.71
2022-11-29T00:23:04.817Z,62.76
2022-11-29T00:25:18.232Z,62.80
2022-11-29T00:27:31.450Z,62.55
2022-11-29T00:29:44.930Z,63.55
2022-11-29T00:31:58.385Z,63.64
2022-11-29T00:34:13.500Z,64.88
2022-11-29T00:36:27.448Z,65.48
2022-11-29T00:38:40.646Z,65.93
2022-11-29T00:40:57.245Z,65.97
2022-11-29T00:43:10.568Z,65.63
2022-11-29T00:45:23.900Z,65.26
2022-11-29T00:47:37.550Z,64.83
2022-11-29T00:49:50.770Z,64.75
2022-11-29T00:52:04.219Z,65.69
2022-11-29T00:54:19.222Z,65.59
2022-11-29T00:56:32.469Z,65.84
2022-11-29T00:58:49.854Z,64.86
2022-11-29T01:01:03.540Z,65.16
2022-11-29T01:03:17.284Z,65.12
2022-11-29T01:05:30.725Z,63.46
2022-11-29T01:07:44.656Z,64.20
2022-11-29T01:09:59.396Z,64.50
2022-11-29T01:12:13.066Z,64.69
2022-11-29T01:14:26.402Z,63.12
2022-11-29T01:16:39.983Z,62.05
2022-11-29T01:18:53.267Z,61.95
2022-11-29T01:21:09.435Z,61.75
2022-11-29T01:23:22.725Z,62.58
2022-11-29T01:25:36.034Z,62.35
2022-11-29T01:27:49.372Z,61.33
2022-11-29T01:30:02.945Z,61.99
2022-11-29T01:32:20.896Z,60.86
2022-11-29T01:34:34.654Z,60.91
2022-11-29T01:36:47.988Z,60.02
2022-11-29T01:39:02.989Z,61.36
2022-11-29T01:41:21.497Z,62.21
2022-11-29T01:43:35.331Z,62.71
2022-11-29T01:45:49.258Z,62.37
2022-11-29T01:48:04.406Z,62.68
2022-11-29T01:50:18.213Z,62.89
2022-11-29T01:52:34.847Z,62.83
2022-11-29T01:54:50.628Z,61.98
2022-11-29T01:57:06.234Z,61.18
2022-11-29T01:59:22.944Z,61.75
2022-11-29T02:01:37.025Z,63.05
2022-11-29T02:03:50.515Z,62.74
2022-11-29T02:06:04.398Z,61.61
2022-11-29T02:08:20.290Z,61.36
2022-11-29T02:10:44.243Z,61.64
2022-11-29T02:13:04.483Z,62.04
2022-11-29T02:15:30.964Z,62.81
2022-11-29T02:17:58.450Z,62.96
2022-11-29T02:20:42.569Z,62.87
2022-11-29T02:23:00.889Z,62.76
2022-11-29T02:25:41.672Z,62.78
2022-11-29T02:28:33.353Z,62.85
2022-11-29T02:31:09.271Z,63.33
2022-11-29T02:33:55.618Z,63.74
2022-11-29T02:36:28.262Z,64.19
2022-11-29T02:39:12.650Z,64.53
2022-11-29T02:41:38.937Z,65.04
2022-11-29T02:44:11.596Z,65.41
2022-11-29T02:46:40.394Z,65.77
2022-11-29T02:49:03.948Z,66.18
2022-11-29T02:51:26.175Z,66.41
2022-11-29T02:53:46.976Z,66.73
2022-11-29T02:56:11.489Z,67.08
2022-11-29T02:58:34.723Z,67.48
2022-11-29T03:00:57.029Z,67.65
2022-11-29T03:03:18.723Z,68.06
2022-11-29T03:05:43.775Z,68.28
2022-11-29T03:08:04.335Z,68.33
2022-11-29T03:10:27.055Z,68.50
2022-11-29T03:12:48.140Z,68.45
2022-11-29T03:15:11.996Z,68.39
2022-11-29T03:17:39.427Z,68.67
2022-11-29T03:20:10.487Z,68.96
2022-11-29T03:22:34.799Z,69.38
2022-11-29T03:24:57.305Z,69.57
2022-11-29T03:27:16.530Z,69.72
2022-11-29T03:29:36.210Z,69.94
2022-11-29T03:31:56.537Z,69.95
2022-11-29T03:34:17.364Z,70.29
2022-11-29T03:36:39.435Z,70.39
2022-11-29T03:38:55.651Z,70.62
2022-11-29T03:41:18.513Z,70.61
2022-11-29T03:43:38.340Z,70.69
2022-11-29T03:45:59.616Z,70.92
2022-11-29T03:48:18.343Z,71.00
2022-11-29T03:50:37.246Z,71.14
2022-11-29T03:52:56.983Z,71.22
2022-11-29T03:55:23.251Z,71.28
2022-11-29T03:57:42.360Z,71.40
2022-11-29T04:00:03.005Z,71.69
2022-11-29T04:02:55.903Z,71.87
2022-11-29T04:05:40.146Z,72.14
2022-11-29T04:08:04.720Z,72.37
2022-11-29T04:10:29.337Z,72.60
2022-11-29T04:13:21.384Z,72.93
2022-11-29T04:16:09.469Z,73.11
2022-11-29T04:18:55.980Z,74.58
2022-11-29T04:21:37.514Z,75.09
2022-11-29T04:24:24.946Z,74.59
2022-11-29T04:27:03.253Z,74.07
2022-11-29T04:29:39.705Z,73.58
2022-11-29T04:32:25.499Z,73.36
2022-11-29T04:35:05.170Z,73.18
2022-11-29T04:37:52.935Z,72.76
2022-11-29T04:40:25.815Z,72.64
2022-11-29T04:42:58.750Z,72.76
2022-11-29T04:46:07.863Z,72.75
2022-11-29T04:48:54.915Z,73.00
2022-11-29T04:51:21.333Z,73.02
2022-11-29T04:53:51.516Z,73.25
2022-11-29T04:56:14.151Z,73.44
2022-11-29T04:58:35.404Z,73.75
2022-11-29T05:00:55.532Z,73.77
2022-11-29T05:03:17.135Z,73.94
2022-11-29T05:05:40.074Z,74.12
2022-11-29T05:07:56.612Z,74.42
2022-11-29T05:10:26.396Z,74.76
2022-11-29T05:12:49.285Z,74.91
2022-11-29T05:15:31.347Z,75.29
2022-11-29T05:17:58.836Z,75.39
2022-11-29T05:20:26.756Z,75.70
2022-11-29T05:22:52.699Z,75.89
2022-11-29T05:25:25.265Z,76.22
2022-11-29T05:27:50.016Z,76.67
2022-11-29T05:30:08.998Z,77.11
2022-11-29T05:32:39.201Z,77.62
2022-11-29T05:35:12.013Z,77.71
2022-11-29T05:37:41.026Z,77.63
2022-11-29T05:40:07.161Z,77.27
2022-11-29T05:42:38.170Z,77.16
2022-11-29T05:44:56.370Z,76.86
2022-11-29T05:47:11.368Z,76.89
2022-11-29T05:49:37.318Z,76.82
2022-11-29T05:51:57.099Z,76.80
2022-11-29T05:54:20.764Z,76.58
2022-11-29T05:56:45.517Z,76.77
2022-11-29T05:59:03.617Z,76.76
2022-11-29T06:01:26.503Z,76.70
2022-11-29T06:03:44.937Z,76.75
2022-11-29T06:06:02.518Z,76.77
2022-11-29T06:08:22.107Z,76.65
2022-11-29T06:10:39.508Z,76.83
2022-11-29T06:13:03.480Z,76.97
2022-11-29T06:15:43.815Z,77.06
2022-11-29T06:18:13.302Z,77.28
2022-11-29T06:21:01.519Z,77.57
2022-11-29T06:23:38.743Z,77.72
2022-11-29T06:26:04.095Z,77.92
2022-11-29T06:28:31.529Z,77.91
2022-11-29T06:30:56.323Z,77.92
2022-11-29T06:33:19.274Z,77.97
2022-11-29T06:35:47.577Z,78.01
2022-11-29T06:38:03.749Z,78.08
2022-11-29T06:40:20.939Z,78.12
2022-11-29T06:42:34.111Z,78.19
2022-11-29T06:44:49.259Z,78.23
2022-11-29T06:47:09.829Z,78.17
2022-11-29T06:49:29.934Z,78.36
2022-11-29T06:51:53.896Z,78.46
2022-11-29T06:54:19.304Z,78.50
2022-11-29T06:56:40.699Z,78.74
2022-11-29T06:59:01.421Z,78.79
2022-11-29T07:01:27.200Z,78.90
2022-11-29T07:03:53.025Z,78.95
2022-11-29T07:06:13.334Z,78.99
2022-11-29T07:08:28.424Z,78.91
2022-11-29T07:10:44.199Z,78.94
2022-11-29T07:12:58.792Z,79.09
2022-11-29T07:15:16.043Z,79.14
2022-11-29T07:17:37.168Z,79.19
2022-11-29T07:20:00.853Z,79.04
2022-11-29T07:22:22.864Z,79.37
2022-11-29T07:24:51.648Z,79.50
2022-11-29T07:27:18.765Z,79.75
2022-11-29T07:29:42.357Z,80.08
2022-11-29T07:32:04.220Z,80.08
2022-11-29T07:34:26.781Z,80.20
2022-11-29T07:36:52.186Z,80.32
2022-11-29T07:39:17.569Z,80.54
2022-11-29T07:41:40.519Z,80.66
2022-11-29T07:44:00.938Z,80.60
2022-11-29T07:46:14.286Z,80.55
2022-11-29T07:48:28.140Z,80.47
2022-11-29T07:50:41.801Z,80.57
2022-11-29T07:52:55.353Z,80.55
2022-11-29T07:55:10.645Z,80.35
2022-11-29T07:57:25.420Z,80.19
2022-11-29T07:59:38.793Z,80.35
2022-11-29T08:01:52.295Z,80.47
2022-11-29T08:04:05.498Z,80.68
2022-11-29T08:06:18.839Z,80.86
2022-11-29T08:08:32.748Z,80.96
2022-11-29T08:10:46.195Z,81.18
2022-11-29T08:12:59.448Z,81.15
2022-11-29T08:15:14.746Z,81.44
2022-11-29T08:17:28.424Z,81.47
2022-11-29T08:19:41.684Z,81.68
2022-11-29T08:21:55.244Z,81.75
2022-11-29T08:24:08.876Z,81.67
2022-11-29T08:26:28.252Z,81.69
2022-11-29T08:28:44.611Z,81.94
2022-11-29T08:31:03.012Z,81.91
2022-11-29T08:33:16.312Z,82.06
2022-11-29T08:35:29.918Z,81.87
2022-11-29T08:37:43.263Z,81.90
2022-11-29T08:39:57.425Z,81.74
2022-11-29T08:42:11.568Z,81.75
2022-11-29T08:44:25.389Z,81.75
2022-11-29T08:47:04.359Z,81.82
2022-11-29T08:49:18.141Z,81.85
2022-11-29T08:51:33.016Z,81.90
2022-11-29T08:53:47.806Z,81.80
2022-11-29T08:56:23.578Z,81.88
2022-11-29T08:58:39.486Z,81.81
2022-11-29T09:00:53.274Z,81.69
2022-11-29T09:03:24.819Z,81.73
2022-11-29T09:05:40.146Z,81.65
2022-11-29T09:07:53.820Z,81.74
2022-11-29T09:10:09.465Z,81.79
2022-11-29T09:12:22.759Z,81.75
2022-11-29T09:14:36.089Z,81.81
2022-11-29T09:16:49.364Z,81.85
2022-11-29T09:19:03.002Z,82.01
2022-11-29T09:21:17.526Z,82.04
2022-11-29T09:23:30.778Z,81.96
2022-11-29T09:25:44.031Z,82.03
2022-11-29T09:27:57.393Z,82.02
2022-11-29T09:30:11.745Z,82.15
2022-11-29T09:32:24.865Z,82.25
2022-11-29T09:34:38.189Z,82.36
2022-11-29T09:36:51.372Z,82.43
2022-11-29T09:39:05.905Z,82.61
2022-11-29T09:41:48.712Z,82.95
2022-11-29T09:44:11.573Z,83.05
2022-11-29T09:46:34.170Z,83.14
2022-11-29T09:49:14.926Z,83.22
2022-11-29T09:51:32.963Z,83.30
2022-11-29T09:54:06.266Z,83.22
2022-11-29T09:56:30.448Z,83.22
2022-11-29T09:58:49.326Z,83.22
2022-11-29T10:01:06.483Z,83.32
2022-11-29T10:03:27.258Z,83.16
2022-11-29T10:05:47.770Z,83.31
2022-11-29T10:08:07.027Z,83.19
2022-11-29T10:10:26.426Z,83.20
2022-11-29T10:12:44.714Z,83.49
2022-11-29T10:15:05.202Z,83.43
2022-11-29T10:17:36.661Z,83.55
2022-11-29T10:19:51.675Z,83.77
2022-11-29T10:22:11.113Z,83.98
2022-11-29T10:24:28.712Z,84.26
2022-11-29T10:26:42.036Z,84.17
2022-11-29T10:28:58.717Z,83.86
2022-11-29T10:31:23.794Z,83.91
2022-11-29T10:33:40.746Z,83.74
2022-11-29T10:35:56.426Z,83.79
2022-11-29T10:40:48.127Z,83.92
2022-11-29T10:43:02.085Z,83.81
2022-11-29T10:45:21.689Z,83.89
2022-11-29T10:47:35.585Z,84.14
2022-11-29T10:49:49.741Z,84.20
2022-11-29T10:52:03.621Z,84.45
2022-11-29T10:54:31.857Z,84.54
2022-11-29T10:56:47.592Z,84.55
2022-11-29T10:59:09.228Z,84.58
2022-11-29T11:01:23.365Z,84.58
2022-11-29T11:03:41.251Z,84.72
2022-11-29T11:06:06.408Z,84.56
2022-11-29T11:08:28.118Z,84.42
2022-11-29T11:10:42.620Z,84.43
2022-11-29T11:13:20.405Z,84.42
2022-11-29T11:15:36.280Z,84.43
2022-11-29T11:18:02.501Z,84.58
2022-11-29T11:20:27.444Z,84.53
2022-11-29T11:22:41.909Z,84.65
2022-11-29T11:25:03.890Z,84.62
2022-11-29T11:27:17.602Z,84.66
2022-11-29T11:29:35.958Z,84.72
2022-11-29T11:31:55.014Z,84.62
2022-11-29T11:34:28.622Z,84.62
2022-11-29T11:36:42.491Z,84.58
2022-11-29T11:38:59.593Z,84.65
2022-11-29T11:41:46.201Z,84.63
2022-11-29T11:44:07.137Z,84.69
2022-11-29T11:46:49.133Z,84.79
2022-11-29T11:49:02.475Z,84.94
2022-11-29T11:51:28.246Z,85.01
2022-11-29T11:53:45.607Z,85.17
2022-11-29T11:56:09.449Z,85.31
2022-11-29T11:58:25.588Z,85.30
2022-11-29T12:01:09.395Z,85.51
2022-11-29T12:03:44.694Z,85.50
2022-11-29T12:06:02.939Z,85.73
2022-11-29T12:08:18.623Z,85.75
2022-11-29T12:10:36.084Z,85.72
2022-11-29T12:12:52.022Z,85.76
2022-11-29T12:15:09.719Z,85.87
2022-11-29T12:17:31.784Z,85.93
2022-11-29T12:19:53.040Z,86.10
2022-11-29T12:22:12.223Z,86.09
2022-11-29T12:24:31.011Z,86.17
2022-11-29T12:26:57.105Z,86.15
2022-11-29T12:29:18.329Z,86.13
2022-11-29T12:31:56.442Z,86.12
2022-11-29T12:34:24.430Z,86.12
2022-11-29T12:36:45.739Z,86.19
2022-11-29T12:39:14.954Z,86.18
2022-11-29T12:41:40.692Z,86.14
2022-11-29T12:44:06.356Z,86.17
2022-11-29T12:46:27.615Z,86.16
2022-11-29T12:48:50.282Z,86.18
2022-11-29T12:51:12.915Z,86.25
2022-11-29T12:53:39.283Z,86.23
2022-11-29T12:56:00.583Z,86.22
2022-11-29T12:58:21.462Z,86.34
2022-11-29T13:00:42.703Z,86.31
2022-11-29T13:03:10.456Z,86.39
2022-11-29T13:05:40.362Z,86.46
2022-11-29T13:08:09.604Z,86.59
2022-11-29T13:10:40.360Z,86.76
2022-11-29T13:12:56.455Z,86.71
2022-11-29T13:15:14.934Z,86.73
2022-11-29T13:17:37.840Z,86.90
2022-11-29T13:19:54.792Z,86.87
2022-11-29T13:22:14.749Z,86.89
2022-11-29T13:24:39.623Z,87.20
2022-11-29T13:26:56.222Z,87.18
2022-11-29T13:29:10.139Z,87.37
2022-11-29T13:31:25.071Z,87.48
2022-11-29T13:33:45.981Z,87.79
2022-11-29T13:36:04.822Z,87.93
2022-11-29T13:38:26.940Z,87.90
2022-11-29T13:40:47.072Z,88.10
2022-11-29T13:43:07.370Z,88.30
2022-11-29T13:45:26.294Z,88.56
2022-11-29T13:47:50.683Z,88.78
2022-11-29T13:50:05.571Z,89.08
2022-11-29T13:52:38.543Z,89.48
2022-11-29T13:54:48.990Z,89.49
2022-11-29T13:57:11.789Z,89.51
2022-11-29T13:59:25.345Z,89.59
2022-11-29T14:01:51.514Z,89.72
2022-11-29T14:04:20.054Z,89.61
2022-11-29T14:06:41.223Z,89.77
2022-11-29T14:09:28.541Z,89.70
2022-11-29T14:11:47.877Z,89.68
2022-11-29T14:14:06.798Z,89.57
2022-11-29T14:16:28.603Z,89.43
2022-11-29T14:19:23.079Z,89.18
2022-11-29T14:22:14.372Z,88.87
2022-11-29T14:24:46.927Z,88.69
2022-11-29T14:27:01.215Z,88.59
2022-11-29T14:29:59.849Z,88.55
2022-11-29T14:32:28.468Z,88.46
2022-11-29T14:34:50.256Z,88.13
2022-11-29T14:37:09.828Z,87.94
2022-11-29T14:39:45.166Z,87.69
2022-11-29T14:42:07.382Z,87.65
2022-11-29T14:44:25.365Z,87.58
2022-11-29T14:46:39.553Z,87.54
2022-11-29T14:49:01.120Z,87.55
2022-11-29T14:51:19.947Z,87.70
2022-11-29T14:53:40.407Z,87.71
2022-11-29T14:55:53.884Z,87.90
2022-11-29T14:58:23.634Z,87.84
2022-11-29T15:00:45.012Z,87.73
2022-11-29T15:03:01.031Z,87.64
2022-11-29T15:05:20.704Z,87.53
2022-11-29T15:07:36.366Z,87.65
2022-11-29T15:09:53.185Z,87.63
2022-11-29T15:12:13.378Z,87.70
2022-11-29T15:14:35.881Z,87.74
2022-11-29T15:17:09.151Z,87.76
2022-11-29T15:19:53.664Z,87.81
2022-11-29T15:22:14.365Z,87.86
2022-11-29T15:24:28.868Z,88.16
2022-11-29T15:26:42.703Z,87.96
2022-11-29T15:28:55.988Z,88.08
2022-11-29T15:31:14.587Z,88.03
2022-11-29T15:33:29.030Z,87.93
2022-11-29T15:35:51.147Z,87.94
2022-11-29T15:38:04.483Z,88.19
2022-11-29T15:40:21.784Z,88.08
2022-11-29T15:42:45.937Z,88.34
2022-11-29T15:44:59.609Z,88.26
2022-11-29T15:47:28.240Z,88.30
2022-11-29T15:49:41.602Z,88.43
2022-11-29T15:51:58.134Z,88.42
2022-11-29T15:54:17.323Z,88.70
2022-11-29T15:56:38.657Z,88.90
2022-11-29T15:58:53.581Z,88.83
2022-11-29T16:01:07.844Z,88.91
2022-11-29T16:03:26.986Z,88.98
2022-11-29T16:05:42.541Z,89.56
2022-11-29T16:07:58.404Z,90.10
2022-11-29T16:10:20.272Z,90.64
2022-11-29T16:12:33.584Z,91.09
2022-11-29T16:14:57.745Z,91.46
2022-11-29T16:17:11.469Z,91.92
2022-11-29T16:19:29.883Z,92.17
2022-11-29T16:21:43.261Z,92.27
2022-11-29T16:23:56.793Z,91.87
2022-11-29T16:26:16.982Z,91.66
2022-11-29T16:28:33.657Z,91.41
2022-11-29T16:30:47.429Z,91.52
2022-11-29T16:33:02.792Z,91.26
2022-11-29T16:35:22.927Z,91.00
2022-11-29T16:37:43.933Z,90.87
2022-11-29T16:40:00.537Z,90.72
2022-11-29T16:42:26.050Z,90.68
2022-11-29T16:45:12.004Z,90.65
2022-11-29T16:47:27.058Z,90.55
2022-11-29T16:49:42.536Z,90.48
2022-11-29T16:51:57.359Z,90.50
2022-11-29T16:54:29.776Z,90.64
2022-11-29T16:56:44.892Z,90.70
2022-11-29T16:59:20.780Z,90.66
2022-11-29T17:01:34.386Z,90.78
2022-11-29T17:03:47.660Z,90.88
2022-11-29T17:06:01.253Z,91.06
2022-11-29T17:08:14.626Z,90.86
2022-11-29T17:10:30.246Z,90.99
2022-11-29T17:12:47.954Z,91.01
2022-11-29T17:15:01.627Z,91.04
2022-11-29T17:17:20.160Z,90.91
2022-11-29T17:19:35.342Z,90.88
2022-11-29T17:21:48.853Z,90.96
2022-11-29T17:24:02.232Z,90.94
2022-11-29T17:26:16.511Z,90.96
2022-11-29T17:28:29.968Z,90.90
2022-11-29T17:30:43.350Z,90.86
2022-11-29T17:32:56.767Z,90.73
2022-11-29T17:35:11.298Z,90.95
2022-11-29T17:37:24.696Z,90.75
2022-11-29T17:39:38.825Z,90.88
2022-11-29T17:41:52.520Z,90.89
2022-11-29T17:44:06.666Z,90.87
2022-11-29T17:46:21.725Z,90.90
2022-11-29T17:48:35.387Z,90.91
2022-11-29T17:50:50.744Z,90.94
2022-11-29T17:53:04.021Z,90.94
2022-11-29T17:55:20.680Z,90.97
2022-11-29T17:57:35.345Z,91.09
2022-11-29T17:59:48.772Z,91.04
2022-11-29T18:02:03.200Z,91.03
2022-11-29T18:04:16.354Z,91.24
2022-11-29T18:06:31.270Z,91.66
2022-11-29T18:08:48.735Z,91.34
2022-11-29T18:11:09.012Z,91.29
2022-11-29T18:13:22.527Z,91.47
2022-11-29T18:15:36.507Z,91.72
2022-11-29T18:17:49.916Z,91.46
2022-11-29T18:20:03.302Z,91.43
2022-11-29T18:22:16.696Z,91.35
2022-11-29T18:24:30.108Z,91.36
2022-11-29T18:26:43.909Z,91.48
2022-11-29T18:28:57.742Z,91.40
2022-11-29T18:31:16.809Z,91.26
2022-11-29T18:33:30.669Z,91.19
2022-11-29T18:35:44.011Z,91.24
2022-11-29T18:38:14.808Z,91.13
2022-11-29T18:40:28.784Z,91.30
2022-11-29T18:42:42.582Z,91.34
2022-11-29T18:44:58.865Z,91.49
2022-11-29T18:47:12.274Z,91.51
2022-11-29T18:49:26.156Z,91.52
2022-11-29T18:51:40.040Z,91.66
2022-11-29T18:53:53.308Z,91.63
2022-11-29T18:56:12.769Z,91.82
2022-11-29T18:58:26.039Z,91.70
2022-11-29T19:00:40.259Z,91.71
2022-11-29T19:02:54.089Z,91.90
2022-11-29T19:05:07.588Z,91.76
2022-11-29T19:07:21.348Z,91.92
2022-11-29T19:09:34.619Z,91.96
2022-11-29T19:11:47.899Z,91.97
2022-11-29T19:14:02.275Z,92.10
2022-11-29T19:16:17.897Z,92.00
2022-11-29T19:18:31.085Z,91.94
2022-11-29T19:20:44.321Z,91.88
2022-11-29T19:23:00.497Z,92.01
2022-11-29T19:25:15.988Z,92.09
2022-11-29T19:27:29.411Z,91.95
2022-11-29T19:29:42.929Z,91.95
2022-11-29T19:31:56.365Z,92.03
2022-11-29T19:34:10.620Z,92.03
2022-11-29T19:36:25.604Z,92.26
2022-11-29T19:38:40.407Z,92.33
2022-11-29T19:40:53.833Z,92.52
2022-11-29T19:43:07.958Z,92.75
2022-11-29T19:45:21.458Z,92.81
2022-11-29T19:47:34.875Z,92.86
2022-11-29T19:49:48.708Z,92.90
2022-11-29T19:52:02.191Z,92.96
2022-11-29T19:54:15.803Z,93.03
2022-11-29T19:56:30.013Z,92.90
2022-11-29T19:58:43.475Z,92.84
2022-11-29T20:00:57.687Z,92.84
2022-11-29T20:03:11.066Z,92.93
2022-11-29T20:05:24.627Z,92.98
2022-11-29T20:07:38.064Z,93.11
2022-11-29T20:09:51.499Z,93.27
2022-11-29T20:12:04.927Z,93.41
2022-11-29T20:14:18.910Z,93.30
2022-11-29T20:16:33.132Z,93.31
2022-11-29T20:18:51.142Z,93.55
2022-11-29T20:21:09.779Z,93.31
2022-11-29T20:23:23.135Z,93.76
2022-11-29T20:25:37.611Z,93.75
2022-11-29T20:27:50.824Z,93.84
2022-11-29T20:30:04.208Z,93.95
2022-11-29T20:32:18.065Z,94.50
2022-11-29T20:34:32.865Z,94.28
2022-11-29T20:36:56.525Z,94.35
2022-11-29T20:39:23.154Z,94.71
2022-11-29T20:41:42.135Z,94.68
2022-11-29T20:44:00.349Z,94.73
2022-11-29T20:46:14.703Z,94.96
2022-11-29T20:48:29.835Z,94.84
2022-11-29T20:50:46.685Z,94.86
2022-11-29T20:53:11.260Z,94.92
2022-11-29T20:55:24.585Z,95.25
2022-11-29T20:57:39.656Z,94.91
2022-11-29T20:59:52.831Z,95.02
2022-11-29T21:02:05.997Z,95.25
2022-11-29T21:04:23.362Z,95.23
2022-11-29T21:06:39.668Z,95.42
2022-11-29T21:08:53.094Z,95.57
2022-11-29T21:11:11.424Z,95.64
2022-11-29T21:13:26.706Z,95.60
2022-11-29T21:15:41.170Z,95.39
2022-11-29T21:17:55.905Z,95.61
2022-11-29T21:20:10.613Z,95.70
2022-11-29T21:22:29.566Z,95.68
2022-11-29T21:24:51.481Z,95.63
2022-11-29T21:27:05.764Z,96.05
2022-11-29T21:29:24.702Z,95.97
2022-11-29T21:31:39.163Z,96.13
2022-11-29T21:33:54.596Z,96.12
2022-11-29T21:36:08.390Z,95.88
2022-11-29T21:38:26.077Z,96.03
2022-11-29T21:40:39.341Z,96.25
2022-11-29T21:42:52.585Z,96.23
2022-11-29T21:45:08.228Z,96.31
2022-11-29T21:47:26.763Z,96.29
2022-11-29T21:49:40.932Z,96.11
2022-11-29T21:51:54.187Z,96.24
2022-11-29T21:54:07.763Z,96.13
2022-11-29T21:56:21.086Z,96.56
2022-11-29T21:58:35.441Z,97.06
2022-11-29T22:00:50.281Z,97.34
2022-11-29T22:03:04.637Z,97.63
2022-11-29T22:05:18.114Z,98.21
2022-11-29T22:07:31.509Z,98.10
2022-11-29T22:09:44.820Z,98.37
2022-11-29T22:11:59.494Z,98.40
2022-11-29T22:14:17.557Z,98.35
2022-11-29T22:16:31.220Z,98.53
2022-11-29T22:18:44.671Z,98.10
2022-11-29T22:20:58.103Z,98.00
2022-11-29T22:23:11.432Z,97.75
2022-11-29T22:25:24.861Z,98.01
2022-11-29T22:27:38.206Z,98.48
2022-11-29T22:29:51.650Z,98.14
2022-11-29T22:32:04.996Z,98.13
2022-11-29T22:34:18.829Z,98.19
2022-11-29T22:36:32.183Z,98.04
2022-11-29T22:38:46.246Z,98.16
2022-11-29T22:41:02.195Z,98.14
2022-11-29T22:43:15.500Z,98.49
2022-11-29T22:45:28.838Z,98.28
2022-11-29T22:47:42.078Z,98.67
2022-11-29T22:49:55.385Z,99.12
2022-11-29T22:52:08.923Z,98.61
2022-11-29T22:54:22.132Z,98.68
2022-11-29T22:56:37.011Z,98.64
2022-11-29T22:58:50.522Z,98.51
2022-11-29T23:01:11.382Z,98.72
2022-11-29T23:03:24.909Z,99.10
2022-11-29T23:05:39.228Z,99.49
2022-11-29T23:07:56.910Z,99.95
2022-11-29T23:10:11.375Z,99.65
2022-11-29T23:12:24.619Z,99.67
2022-11-29T23:14:38.210Z,99.72
2022-11-29T23:16:51.626Z,99.99
2022-11-29T23:19:05.786Z,100.00
2022-11-29T23:21:20.587Z,100.00
2022-11-29T23:23:34.219Z,99.92
2022-11-29T23:25:54.216Z,99.79
2022-11-29T23:28:07.696Z,99.97
2022-11-29T23:30:22.299Z,100.00
2022-11-29T23:32:35.646Z,100.00
2022-11-29T23:34:49.347Z,100.00
2022-11-29T23:37:02.853Z,100.00
2022-11-29T23:39:16.195Z,99.95
2022-11-29T23:41:29.576Z,99.99
2022-11-29T23:43:44.281Z,100.00
2022-11-29T23:45:58.171Z,100.00
2022-11-29T23:48:11.808Z,100.00
2022-11-29T23:50:25.091Z,100.00
2022-11-29T23:52:41.405Z,100.00
2022-11-29T23:54:54.859Z,100.00
2022-11-29T23:57:08.786Z,100.00
2022-11-29T23:59:22.179Z,100.00
